Maersk Nairobi — 9V5824 — position and weather

sailwx.info

Track history (hours):
 
Tides and Currents Weather Stations Pressure Air Temp Water Temp Dewpoint Dewpoint Depression Visibility Wind Speed Wind Dir Waves Ship Positions

Maersk Nairobi

Last reported at 2018-May-15 21:56 UTC. Time now 2018-May-22 10:17 UTC.
Position N 34°54' E 031°57'.

Length 210 m; draft 11.4 m.

Type: Ship (hazmat cat B). MMSI: 563044300.

Date/timePositionNaut miles runAvg speedWind from/ knotsBaromVisibWave heightAir tempDewpointWater temp
2018-May-15 21:56N 34°54' E 031°57'86 9.6
2018-May-15 13:01N 33°37' E 031°10'010.1
2018-May-15 13:00N 33°37' E 031°10'3010.0
2018-May-15 10:01N 33°10' E 030°54'0 9.4
2018-May-15 10:00N 33°10' E 030°54'25 9.8
2018-May-15 07:29N 32°48' E 030°41'5 9.9
2018-May-15 06:56N 32°43' E 030°38'710.0
2018-May-15 06:15N 32°37' E 030°35'  
2018-May-11 20:34N 36°27' E 015°09'315.3
2018-May-11 20:22N 36°28' E 015°06'614.6
2018-May-11 19:59N 36°30' E 014°59'714.4
2018-May-11 19:30N 36°33' E 014°51'814.9
2018-May-11 19:00N 36°36' E 014°43'4414.7
2018-May-11 15:58N 36°55' E 013°53'714.4
2018-May-11 15:30N 36°58' E 013°45'714.6
2018-May-11 15:00N 37°01' E 013°37'714.8
2018-May-11 14:30N 37°05' E 013°29'24414.5
2018-May-10 21:38N 38°39' E 008°43'214.4
2018-May-10 21:29N 38°39' E 008°41'31614.3
2018-May-09 23:24N 41°05' E 002°36'614.0
2018-May-09 23:00N 41°08' E 002°30'713.9
2018-May-09 22:30N 41°11' E 002°22'713.9
2018-May-09 22:01N 41°15' E 002°14'510.4
2018-May-09 21:30N 41°19' E 002°10'1 1.6
2018-May-09 20:58N 41°19' E 002°09'0 0.0
2018-May-09 20:28N 41°19' E 002°09'0 0.0
2018-May-09 19:58N 41°19' E 002°09'0 0.0
2018-May-09 19:28N 41°19' E 002°09'0 0.0
2018-May-09 18:58N 41°19' E 002°09'0 0.0
2018-May-09 18:28N 41°19' E 002°09'0 0.0
2018-May-09 17:58N 41°19' E 002°09'0 0.0
2018-May-09 17:28N 41°19' E 002°09'0 0.0
2018-May-09 16:58N 41°19' E 002°09'0 0.0
2018-May-09 16:28N 41°19' E 002°09'0 0.0
2018-May-09 15:58N 41°19' E 002°09'0 0.0
2018-May-09 15:28N 41°19' E 002°09'0 0.0
2018-May-09 14:58N 41°19' E 002°09'0 0.0
2018-May-09 14:28N 41°19' E 002°09'0 0.0
2018-May-09 13:58N 41°19' E 002°09'0 0.0
2018-May-09 13:28N 41°19' E 002°09'0 0.0
2018-May-09 12:58N 41°19' E 002°09'0 0.0
2018-May-09 12:28N 41°19' E 002°09'0 0.0
2018-May-09 11:58N 41°19' E 002°09'0 0.0
2018-May-09 11:28N 41°19' E 002°09'0 0.0
2018-May-09 10:58N 41°19' E 002°09'1 1.9
2018-May-09 10:31N 41°19' E 002°10'3 6.9
2018-May-09 10:00N 41°16' E 002°11'3 5.9
2018-May-09 09:30N 41°13' E 002°08'510.5
2018-May-09 09:00N 41°09' E 002°04'610.9
2018-May-09 08:28N 41°05' E 001°59'510.9
2018-May-09 08:00N 41°01' E 001°55'611.1
2018-May-09 07:30N 40°57' E 001°50'710.9
2018-May-09 06:54N 40°52' E 001°44'117 3.3
2018-May-07 18:58N 39°32' W 000°08'10 9.2
2018-May-07 17:53N 39°25' W 000°17'2 5.6
2018-May-07 17:30N 39°27' W 000°19'0 0.1
2018-May-07 16:06N 39°27' W 000°19'0 0.0
2018-May-07 15:54N 39°27' W 000°19'0 0.0
2018-May-07 15:00N 39°27' W 000°19'0 0.0
2018-May-07 14:30N 39°27' W 000°19'0 0.0
2018-May-07 13:54N 39°27' W 000°19'0 0.0
2018-May-07 13:30N 39°27' W 000°19'0 0.0
2018-May-07 13:00N 39°27' W 000°19'0 0.0
2018-May-07 12:06N 39°27' W 000°19'0 0.0
2018-May-07 12:00N 39°27' W 000°19'0 0.0
2018-May-07 11:24N 39°27' W 000°19'0 0.0
2018-May-07 10:42N 39°27' W 000°19'0 0.0
2018-May-07 10:30N 39°27' W 000°19'0 0.0
2018-May-07 10:00N 39°27' W 000°19'0 0.0
2018-May-07 09:30N 39°27' W 000°19'0 0.0
2018-May-07 09:00N 39°27' W 000°19'0 0.0
2018-May-07 08:30N 39°27' W 000°19'0 0.0
2018-May-07 07:54N 39°27' W 000°19'0 0.0
2018-May-07 07:18N 39°27' W 000°19'0 0.0
2018-May-07 07:00N 39°27' W 000°19'0 0.0
2018-May-07 06:30N 39°27' W 000°19'0 0.0
2018-May-07 05:33N 39°27' W 000°19'0 0.0
2018-May-07 05:30N 39°27' W 000°19'0 0.0
2018-May-07 04:57N 39°27' W 000°19'0 0.0
2018-May-07 04:27N 39°27' W 000°19'0 0.0
2018-May-07 04:00N 39°27' W 000°19'0 0.0
2018-May-07 03:30N 39°27' W 000°19'0 0.0
2018-May-07 03:00N 39°27' W 000°19'0 0.0
2018-May-07 02:30N 39°27' W 000°19'0 0.0
2018-May-07 02:00N 39°27' W 000°19'0 0.0
2018-May-07 01:30N 39°27' W 000°19'0 0.0
2018-May-07 01:00N 39°27' W 000°19'0 0.0
2018-May-07 00:30N 39°27' W 000°19'0 0.0
2018-May-06 23:57N 39°27' W 000°19'0 0.0
2018-May-06 23:30N 39°27' W 000°19'0 0.0
2018-May-06 22:54N 39°27' W 000°19'0 0.0
2018-May-06 22:27N 39°27' W 000°19'0 0.0
2018-May-06 22:00N 39°27' W 000°19'0 0.0
2018-May-06 21:27N 39°27' W 000°19'1 2.2
2018-May-06 21:00N 39°26' W 000°18'4 0.3
2018-May-06 08:56N 39°23' W 000°15'72 7.4
2018-May-05 23:12N 38°12' E 000°02'2 9.7
2018-May-05 22:59N 38°10' E 000°01'5 9.8
2018-May-05 22:30N 38°06' W 000°03'  
Track history (hours):
 
Tides and Currents Weather Stations Pressure Air Temp Water Temp Dewpoint Dewpoint Depression Visibility Wind Speed Wind Dir Waves Ship Positions

Maersk Nairobi

Last reported at 2018-May-15 21:56 UTC. Time now 2018-May-22 10:17 UTC.
Position N 34°54' E 031°57'.

Length 210 m; draft 11.4 m.

Type: Ship (hazmat cat B). MMSI: 563044300.

Date/timePositionNaut miles runAvg speedWind from/ knotsBaromVisibWave heightAir tempDewpointWater temp
2018-May-15 21:56N 34°54' E 031°57'86 9.6
2018-May-15 13:01N 33°37' E 031°10'010.1
2018-May-15 13:00N 33°37' E 031°10'3010.0
2018-May-15 10:01N 33°10' E 030°54'0 9.4
2018-May-15 10:00N 33°10' E 030°54'25 9.8
2018-May-15 07:29N 32°48' E 030°41'5 9.9
2018-May-15 06:56N 32°43' E 030°38'710.0
2018-May-15 06:15N 32°37' E 030°35'  
2018-May-11 20:34N 36°27' E 015°09'315.3
2018-May-11 20:22N 36°28' E 015°06'614.6
2018-May-11 19:59N 36°30' E 014°59'714.4
2018-May-11 19:30N 36°33' E 014°51'814.9
2018-May-11 19:00N 36°36' E 014°43'4414.7
2018-May-11 15:58N 36°55' E 013°53'714.4
2018-May-11 15:30N 36°58' E 013°45'714.6
2018-May-11 15:00N 37°01' E 013°37'714.8
2018-May-11 14:30N 37°05' E 013°29'24414.5
2018-May-10 21:38N 38°39' E 008°43'214.4
2018-May-10 21:29N 38°39' E 008°41'31614.3
2018-May-09 23:24N 41°05' E 002°36'614.0
2018-May-09 23:00N 41°08' E 002°30'713.9
2018-May-09 22:30N 41°11' E 002°22'713.9
2018-May-09 22:01N 41°15' E 002°14'510.4
2018-May-09 21:30N 41°19' E 002°10'1 1.6
2018-May-09 20:58N 41°19' E 002°09'0 0.0
2018-May-09 20:28N 41°19' E 002°09'0 0.0
2018-May-09 19:58N 41°19' E 002°09'0 0.0
2018-May-09 19:28N 41°19' E 002°09'0 0.0
2018-May-09 18:58N 41°19' E 002°09'0 0.0
2018-May-09 18:28N 41°19' E 002°09'0 0.0
2018-May-09 17:58N 41°19' E 002°09'0 0.0
2018-May-09 17:28N 41°19' E 002°09'0 0.0
2018-May-09 16:58N 41°19' E 002°09'0 0.0
2018-May-09 16:28N 41°19' E 002°09'0 0.0
2018-May-09 15:58N 41°19' E 002°09'0 0.0
2018-May-09 15:28N 41°19' E 002°09'0 0.0
2018-May-09 14:58N 41°19' E 002°09'0 0.0
2018-May-09 14:28N 41°19' E 002°09'0 0.0
2018-May-09 13:58N 41°19' E 002°09'0 0.0
2018-May-09 13:28N 41°19' E 002°09'0 0.0
2018-May-09 12:58N 41°19' E 002°09'0 0.0
2018-May-09 12:28N 41°19' E 002°09'0 0.0
2018-May-09 11:58N 41°19' E 002°09'0 0.0
2018-May-09 11:28N 41°19' E 002°09'0 0.0
2018-May-09 10:58N 41°19' E 002°09'1 1.9
2018-May-09 10:31N 41°19' E 002°10'3 6.9
2018-May-09 10:00N 41°16' E 002°11'3 5.9
2018-May-09 09:30N 41°13' E 002°08'510.5
2018-May-09 09:00N 41°09' E 002°04'610.9
2018-May-09 08:28N 41°05' E 001°59'510.9
2018-May-09 08:00N 41°01' E 001°55'611.1
2018-May-09 07:30N 40°57' E 001°50'710.9
2018-May-09 06:54N 40°52' E 001°44'117 3.3
2018-May-07 18:58N 39°32' W 000°08'10 9.2
2018-May-07 17:53N 39°25' W 000°17'2 5.6
2018-May-07 17:30N 39°27' W 000°19'0 0.1
2018-May-07 16:06N 39°27' W 000°19'0 0.0
2018-May-07 15:54N 39°27' W 000°19'0 0.0
2018-May-07 15:00N 39°27' W 000°19'0 0.0
2018-May-07 14:30N 39°27' W 000°19'0 0.0
2018-May-07 13:54N 39°27' W 000°19'0 0.0
2018-May-07 13:30N 39°27' W 000°19'0 0.0
2018-May-07 13:00N 39°27' W 000°19'0 0.0
2018-May-07 12:06N 39°27' W 000°19'0 0.0
2018-May-07 12:00N 39°27' W 000°19'0 0.0
2018-May-07 11:24N 39°27' W 000°19'0 0.0
2018-May-07 10:42N 39°27' W 000°19'0 0.0
2018-May-07 10:30N 39°27' W 000°19'0 0.0
2018-May-07 10:00N 39°27' W 000°19'0 0.0
2018-May-07 09:30N 39°27' W 000°19'0 0.0
2018-May-07 09:00N 39°27' W 000°19'0 0.0
2018-May-07 08:30N 39°27' W 000°19'0 0.0
2018-May-07 07:54N 39°27' W 000°19'0 0.0
2018-May-07 07:18N 39°27' W 000°19'0 0.0
2018-May-07 07:00N 39°27' W 000°19'0 0.0
2018-May-07 06:30N 39°27' W 000°19'0 0.0
2018-May-07 05:33N 39°27' W 000°19'0 0.0
2018-May-07 05:30N 39°27' W 000°19'0 0.0
2018-May-07 04:57N 39°27' W 000°19'0 0.0
2018-May-07 04:27N 39°27' W 000°19'0 0.0
2018-May-07 04:00N 39°27' W 000°19'0 0.0
2018-May-07 03:30N 39°27' W 000°19'0 0.0
2018-May-07 03:00N 39°27' W 000°19'0 0.0
2018-May-07 02:30N 39°27' W 000°19'0 0.0
2018-May-07 02:00N 39°27' W 000°19'0 0.0
2018-May-07 01:30N 39°27' W 000°19'0 0.0
2018-May-07 01:00N 39°27' W 000°19'0 0.0
2018-May-07 00:30N 39°27' W 000°19'0 0.0
2018-May-06 23:57N 39°27' W 000°19'0 0.0
2018-May-06 23:30N 39°27' W 000°19'0 0.0
2018-May-06 22:54N 39°27' W 000°19'0 0.0
2018-May-06 22:27N 39°27' W 000°19'0 0.0
2018-May-06 22:00N 39°27' W 000°19'0 0.0
2018-May-06 21:27N 39°27' W 000°19'1 2.2
2018-May-06 21:00N 39°26' W 000°18'4 0.3
2018-May-06 08:56N 39°23' W 000°15'72 7.4
2018-May-05 23:12N 38°12' E 000°02'2 9.7
2018-May-05 22:59N 38°10' E 000°01'5 9.8
2018-May-05 22:30N 38°06' W 000°03'  

Dump ship's entire track history